Time;durP1;ratioP1;P1;durP2;ratioP2;P2;SDS_P1;SDS_P2;PMS_P1;PMS_P2;Temp;Humidity;BMP_temperature;BMP_pressure;BME280_temperature;BME280_humidity;BME280_pressure;Samples;Min_cycle;Max_cycle;Signal;HPM_P1;HPM_P2
2021/12/10 00:00:01;;;;;;;0.00;0.00;;;;;;;;;;1723302;28;20208;-71
2021/12/10 00:00:56;;;;;;;0.00;0.00;;;;;;;;;;1724281;28;20286;-72
2021/12/10 00:01:50;;;;;;;0.00;0.00;;;;;;;;;;1726477;28;20436;-71
2021/12/10 00:02:46;;;;;;;0.00;0.00;;;;;;;;;;1724828;28;20196;-71
2021/12/10 00:03:38;;;;;;;0.10;0.10;;;;;;;;;;1726828;28;20216;-71
2021/12/10 00:04:32;;;;;;;0.00;0.00;;;;;;;;;;1725452;28;20215;-71
2021/12/10 00:05:26;;;;;;;0.00;0.00;;;;;;;;;;1726609;28;20204;-72
2021/12/10 00:06:20;;;;;;;0.10;0.10;;;;;;;;;;1722271;28;20236;-71
2021/12/10 00:07:13;;;;;;;0.00;0.00;;;;;;;;;;1726279;28;20236;-71
2021/12/10 00:08:06;;;;;;;0.00;0.00;;;;;;;;;;1725207;28;20222;-71
2021/12/10 00:08:59;;;;;;;0.00;0.00;;;;;;;;;;1725547;28;20212;-72
2021/12/10 00:09:53;;;;;;;0.10;0.10;;;;;;;;;;1725888;28;20563;-71
2021/12/10 00:10:47;;;;;;;0.00;0.00;;;;;;;;;;1725026;28;20293;-71
2021/12/10 00:11:41;;;;;;;0.00;0.00;;;;;;;;;;1726402;28;20863;-71
2021/12/10 00:12:35;;;;;;;0.08;0.08;;;;;;;;;;1724834;28;20211;-71
2021/12/10 00:13:27;;;;;;;0.00;0.00;;;;;;;;;;1726331;28;20239;-71
2021/12/10 00:14:23;;;;;;;0.00;0.00;;;;;;;;;;1724511;28;20220;-71
2021/12/10 00:15:16;;;;;;;0.00;0.00;;;;;;;;;;1726772;28;20211;-71
2021/12/10 00:16:07;;;;;;;0.00;0.00;;;;;;;;;;1724154;28;20240;-71
2021/12/10 00:16:59;;;;;;;0.00;0.00;;;;;;;;;;1726243;28;20227;-71
2021/12/10 00:17:52;;;;;;;0.00;0.00;;;;;;;;;;1721251;28;20674;-71
2021/12/10 00:18:51;;;;;;;0.00;0.00;;;;;;;;;;1725846;28;20736;-71
2021/12/10 00:19:47;;;;;;;0.00;0.00;;;;;;;;;;1724769;28;20204;-71
2021/12/10 00:20:41;;;;;;;0.00;0.00;;;;;;;;;;1724896;28;20199;-71
2021/12/10 00:21:32;;;;;;;0.00;0.00;;;;;;;;;;1726137;28;20615;-71
2021/12/10 00:22:28;;;;;;;0.00;0.00;;;;;;;;;;1725823;28;20645;-71
2021/12/10 00:23:20;;;;;;;0.00;0.00;;;;;;;;;;1722987;28;20546;-71
2021/12/10 00:24:12;;;;;;;0.00;0.00;;;;;;;;;;1725143;28;20262;-71
2021/12/10 00:25:07;;;;;;;0.00;0.00;;;;;;;;;;1724000;28;20216;-71
2021/12/10 00:26:00;;;;;;;0.00;0.00;;;;;;;;;;1722105;28;20278;-71
2021/12/10 00:26:52;;;;;;;0.00;0.00;;;;;;;;;;1724055;28;20211;-71
2021/12/10 00:27:44;;;;;;;0.00;0.00;;;;;;;;;;1724607;28;20212;-71
2021/12/10 00:28:39;;;;;;;0.00;0.00;;;;;;;;;;1726407;28;20204;-71
2021/12/10 00:29:31;;;;;;;0.00;0.00;;;;;;;;;;1724505;28;20444;-71
2021/12/10 00:30:24;;;;;;;0.00;0.00;;;;;;;;;;1726383;28;20244;-71
2021/12/10 00:31:30;;;;;;;0.03;0.03;;;;;;;;;;1718831;28;20233;-71
2021/12/10 00:32:30;;;;;;;0.00;0.00;;;;;;;;;;1718750;28;20216;-71
2021/12/10 00:33:24;;;;;;;0.00;0.00;;;;;;;;;;1719680;28;20201;-71
2021/12/10 00:34:18;;;;;;;0.00;0.00;;;;;;;;;;1718999;28;20258;-71
2021/12/10 00:35:14;;;;;;;0.00;0.00;;;;;;;;;;1718051;28;20210;-71
2021/12/10 00:36:07;;;;;;;0.00;0.00;;;;;;;;;;1717898;28;20587;-71
2021/12/10 00:37:01;;;;;;;0.00;0.00;;;;;;;;;;1719550;28;20220;-71
2021/12/10 00:37:53;;;;;;;0.10;0.10;;;;;;;;;;1719016;28;20215;-71
2021/12/10 00:38:45;;;;;;;0.00;0.00;;;;;;;;;;1711988;28;20316;-71
2021/12/10 00:39:38;;;;;;;0.00;0.00;;;;;;;;;;1717745;28;20216;-71
2021/12/10 00:40:30;;;;;;;0.00;0.00;;;;;;;;;;1719250;28;20279;-71
2021/12/10 00:41:22;;;;;;;0.00;0.00;;;;;;;;;;1718620;28;20620;-71
2021/12/10 00:42:17;;;;;;;0.00;0.00;;;;;;;;;;1719786;28;20205;-71
2021/12/10 00:43:08;;;;;;;0.00;0.00;;;;;;;;;;1718734;28;20352;-71
2021/12/10 00:44:01;;;;;;;0.10;0.10;;;;;;;;;;1719182;28;20193;-71
2021/12/10 00:44:52;;;;;;;0.00;0.00;;;;;;;;;;1718170;28;20263;-71
2021/12/10 00:45:45;;;;;;;0.00;0.00;;;;;;;;;;1719033;28;20238;-71
2021/12/10 00:46:37;;;;;;;0.00;0.00;;;;;;;;;;1718742;28;20216;-71
2021/12/10 00:47:29;;;;;;;0.00;0.00;;;;;;;;;;1718545;28;20252;-71
2021/12/10 00:48:21;;;;;;;0.00;0.00;;;;;;;;;;1719140;28;20201;-71
2021/12/10 00:49:13;;;;;;;0.00;0.00;;;;;;;;;;1719155;28;20212;-71
2021/12/10 00:50:10;;;;;;;0.00;0.00;;;;;;;;;;1719742;28;20631;-71
2021/12/10 00:51:04;;;;;;;0.00;0.00;;;;;;;;;;1717099;28;20315;-71
2021/12/10 00:51:56;;;;;;;0.03;0.03;;;;;;;;;;1719636;28;20205;-71
2021/12/10 00:52:49;;;;;;;0.00;0.00;;;;;;;;;;1718147;28;20209;-71
2021/12/10 00:53:41;;;;;;;0.00;0.00;;;;;;;;;;1719867;28;20320;-71
2021/12/10 00:54:33;;;;;;;0.00;0.00;;;;;;;;;;1718723;28;20263;-71
2021/12/10 00:55:25;;;;;;;0.00;0.00;;;;;;;;;;1712608;28;20599;-71
2021/12/10 00:56:17;;;;;;;0.00;0.00;;;;;;;;;;1717339;28;20227;-71
2021/12/10 00:57:09;;;;;;;0.00;0.00;;;;;;;;;;1718754;28;20205;-71
2021/12/10 00:58:01;;;;;;;0.00;0.00;;;;;;;;;;1717249;28;20200;-71
2021/12/10 00:58:55;;;;;;;0.00;0.00;;;;;;;;;;1719259;28;20209;-71
2021/12/10 00:59:49;;;;;;;0.00;0.00;;;;;;;;;;1718981;28;20311;-71
2021/12/10 01:00:41;;;;;;;0.00;0.00;;;;;;;;;;1718906;28;20247;-72
2021/12/10 01:01:34;;;;;;;0.00;0.00;;;;;;;;;;1718972;28;20205;-72
2021/12/10 01:02:26;;;;;;;0.00;0.00;;;;;;;;;;1719009;28;20205;-71
2021/12/10 01:03:20;;;;;;;0.00;0.00;;;;;;;;;;1718690;28;20658;-71
2021/12/10 01:04:13;;;;;;;0.00;0.00;;;;;;;;;;1718572;28;20209;-71
2021/12/10 01:05:07;;;;;;;0.00;0.00;;;;;;;;;;1719347;28;20216;-71
2021/12/10 01:06:01;;;;;;;0.00;0.00;;;;;;;;;;1718096;28;20232;-72
2021/12/10 01:06:54;;;;;;;0.00;0.00;;;;;;;;;;1717514;28;20215;-72
2021/12/10 01:07:47;;;;;;;0.00;0.00;;;;;;;;;;1718635;28;20225;-71
2021/12/10 01:08:40;;;;;;;0.00;0.00;;;;;;;;;;1719033;28;20630;-71
2021/12/10 01:09:33;;;;;;;0.00;0.00;;;;;;;;;;1717997;28;20213;-71
2021/12/10 01:10:26;;;;;;;0.00;0.00;;;;;;;;;;1718934;28;20209;-71
2021/12/10 01:11:21;;;;;;;0.00;0.00;;;;;;;;;;1718987;28;20308;-71
2021/12/10 01:12:15;;;;;;;0.00;0.00;;;;;;;;;;1726309;28;20208;-71
2021/12/10 01:13:08;;;;;;;0.00;0.00;;;;;;;;;;1720547;28;20239;-71
2021/12/10 01:14:09;;;;;;;0.00;0.00;;;;;;;;;;1725091;28;20201;-71
2021/12/10 01:15:21;;;;;;;0.00;0.00;;;;;;;;;;1718905;28;20292;-71
2021/12/10 01:23:43;;;;;;;0.00;0.00;;;;;;;;;;1713065;28;20229;-71
2021/12/10 01:23:51;;;;;;;0.03;0.03;;;;;;;;;;1717003;28;20227;-71
2021/12/10 01:24:53;;;;;;;0.05;0.05;;;;;;;;;;1718172;28;20216;-71
2021/12/10 01:25:55;;;;;;;0.00;0.00;;;;;;;;;;1718072;28;20235;-71
2021/12/10 01:26:55;;;;;;;0.00;0.00;;;;;;;;;;1716335;28;20216;-71
2021/12/10 01:27:48;;;;;;;0.00;0.00;;;;;;;;;;1717445;28;20506;-71
2021/12/10 01:28:42;;;;;;;0.00;0.00;;;;;;;;;;1719241;28;20200;-71
2021/12/10 01:29:36;;;;;;;0.00;0.00;;;;;;;;;;1718034;28;20204;-71
2021/12/10 01:30:30;;;;;;;0.10;0.10;;;;;;;;;;1712199;28;20216;-71
2021/12/10 01:31:22;;;;;;;0.00;0.00;;;;;;;;;;1713150;28;20198;-71
2021/12/10 01:32:15;;;;;;;0.00;0.00;;;;;;;;;;1719481;28;20205;-71
2021/12/10 01:33:09;;;;;;;0.00;0.00;;;;;;;;;;1713113;28;20201;-71
2021/12/10 01:34:00;;;;;;;0.00;0.00;;;;;;;;;;1718199;28;20209;-71
2021/12/10 01:34:53;;;;;;;0.10;0.10;;;;;;;;;;1718762;28;20590;-71
2021/12/10 01:35:48;;;;;;;0.00;0.00;;;;;;;;;;1717884;28;20717;-71
2021/12/10 01:36:41;;;;;;;0.10;0.10;;;;;;;;;;1715434;28;20592;-71
2021/12/10 01:37:32;;;;;;;0.00;0.00;;;;;;;;;;1717066;28;20681;-71
2021/12/10 01:38:25;;;;;;;0.00;0.00;;;;;;;;;;1716356;28;20444;-71
2021/12/10 01:39:19;;;;;;;0.00;0.00;;;;;;;;;;1723794;28;20200;-71
2021/12/10 01:40:12;;;;;;;0.00;0.00;;;;;;;;;;1724571;28;20208;-71
2021/12/10 01:41:07;;;;;;;0.00;0.00;;;;;;;;;;1721167;28;20244;-72
2021/12/10 01:42:13;;;;;;;0.00;0.00;;;;;;;;;;1725462;28;20204;-71
2021/12/10 01:43:06;;;;;;;0.00;0.00;;;;;;;;;;1722114;28;20205;-71
2021/12/10 01:44:03;;;;;;;0.00;0.00;;;;;;;;;;1725335;28;20199;-71
2021/12/10 01:44:55;;;;;;;0.00;0.00;;;;;;;;;;1723106;28;20247;-71
2021/12/10 01:45:48;;;;;;;0.00;0.00;;;;;;;;;;1723582;28;20231;-71
2021/12/10 01:46:40;;;;;;;0.00;0.00;;;;;;;;;;1722046;28;20296;-71
2021/12/10 01:47:34;;;;;;;0.00;0.00;;;;;;;;;;1724876;28;20283;-71
2021/12/10 01:48:27;;;;;;;0.00;0.00;;;;;;;;;;1725978;28;20219;-71
2021/12/10 01:49:19;;;;;;;0.00;0.00;;;;;;;;;;1724267;28;20665;-71
2021/12/10 01:50:11;;;;;;;0.00;0.00;;;;;;;;;;1726041;28;20612;-71
2021/12/10 01:51:03;;;;;;;0.00;0.00;;;;;;;;;;1723368;28;20653;-71
2021/12/10 01:51:54;;;;;;;0.00;0.00;;;;;;;;;;1725442;28;20696;-71
2021/12/10 01:52:51;;;;;;;0.10;0.10;;;;;;;;;;1721944;28;20212;-71
2021/12/10 01:53:43;;;;;;;0.00;0.00;;;;;;;;;;1725707;28;20240;-71
2021/12/10 01:54:39;;;;;;;0.00;0.00;;;;;;;;;;1723475;28;20215;-71
2021/12/10 01:55:31;;;;;;;0.00;0.00;;;;;;;;;;1724642;28;20204;-72
2021/12/10 01:56:24;;;;;;;0.00;0.00;;;;;;;;;;1723816;28;20196;-71
2021/12/10 01:57:17;;;;;;;0.00;0.00;;;;;;;;;;1725041;28;20538;-71
2021/12/10 01:58:11;;;;;;;0.00;0.00;;;;;;;;;;1723645;28;20538;-71
2021/12/10 01:59:02;;;;;;;0.00;0.00;;;;;;;;;;1725089;28;20219;-71
2021/12/10 01:59:55;;;;;;;0.00;0.00;;;;;;;;;;1722507;28;20215;-71
2021/12/10 02:00:49;;;;;;;0.00;0.00;;;;;;;;;;1724273;28;20236;-71
2021/12/10 02:01:44;;;;;;;0.00;0.00;;;;;;;;;;1725279;28;20981;-71
2021/12/10 02:02:36;;;;;;;0.00;0.00;;;;;;;;;;1724513;28;20637;-71
2021/12/10 02:03:28;;;;;;;0.10;0.10;;;;;;;;;;1725400;28;20238;-71
2021/12/10 02:04:21;;;;;;;0.00;0.00;;;;;;;;;;1724128;28;20209;-71
2021/12/10 02:05:13;;;;;;;0.00;0.00;;;;;;;;;;1726340;28;20550;-71
2021/12/10 02:06:06;;;;;;;0.00;0.00;;;;;;;;;;1723477;28;20240;-70
2021/12/10 02:07:00;;;;;;;0.03;0.03;;;;;;;;;;1725915;28;20215;-70
2021/12/10 02:07:53;;;;;;;0.00;0.00;;;;;;;;;;1723743;28;20343;-70
2021/12/10 02:08:45;;;;;;;0.00;0.00;;;;;;;;;;1726207;28;20291;-70
2021/12/10 02:09:38;;;;;;;0.00;0.00;;;;;;;;;;1720190;28;20200;-70
2021/12/10 02:10:30;;;;;;;0.00;0.00;;;;;;;;;;1725438;28;20338;-71
2021/12/10 02:11:21;;;;;;;0.00;0.00;;;;;;;;;;1724434;28;20680;-71
2021/12/10 02:12:15;;;;;;;0.00;0.00;;;;;;;;;;1725894;28;20204;-71
2021/12/10 02:13:06;;;;;;;0.00;0.00;;;;;;;;;;1722240;28;20658;-71
2021/12/10 02:13:58;;;;;;;0.00;0.00;;;;;;;;;;1725294;28;20208;-71
2021/12/10 02:14:59;;;;;;;0.00;0.00;;;;;;;;;;1721286;28;20295;-71
2021/12/10 02:15:51;;;;;;;0.00;0.00;;;;;;;;;;1723250;28;20220;-71
2021/12/10 02:16:43;;;;;;;0.00;0.00;;;;;;;;;;1725180;28;20212;-71
2021/12/10 02:17:36;;;;;;;0.03;0.03;;;;;;;;;;1724730;28;20275;-71
2021/12/10 02:18:27;;;;;;;0.05;0.05;;;;;;;;;;1725422;28;20273;-70
2021/12/10 02:19:20;;;;;;;0.00;0.00;;;;;;;;;;1719088;28;20623;-70
2021/12/10 02:20:13;;;;;;;0.00;0.00;;;;;;;;;;1724334;28;20381;-70
2021/12/10 02:21:17;;;;;;;0.00;0.00;;;;;;;;;;1723408;28;20224;-71
2021/12/10 02:22:08;;;;;;;0.00;0.00;;;;;;;;;;1718097;28;20255;-71
2021/12/10 02:23:01;;;;;;;0.00;0.00;;;;;;;;;;1718948;28;20520;-71
2021/12/10 02:23:56;;;;;;;0.00;0.00;;;;;;;;;;1725660;28;20212;-71
2021/12/10 02:24:48;;;;;;;0.00;0.00;;;;;;;;;;1724576;28;20208;-71
2021/12/10 02:25:40;;;;;;;0.10;0.10;;;;;;;;;;1724307;28;20242;-71
2021/12/10 02:26:33;;;;;;;0.10;0.10;;;;;;;;;;1724817;28;20204;-71
2021/12/10 02:27:25;;;;;;;0.10;0.10;;;;;;;;;;1724420;28;20246;-71
2021/12/10 02:28:17;;;;;;;0.00;0.00;;;;;;;;;;1724195;28;20247;-71
2021/12/10 02:29:11;;;;;;;0.00;0.00;;;;;;;;;;1724197;28;20208;-71
2021/12/10 02:30:06;;;;;;;0.00;0.00;;;;;;;;;;1722658;28;20298;-71
2021/12/10 02:30:59;;;;;;;0.03;0.03;;;;;;;;;;1721404;28;20568;-70
2021/12/10 02:31:51;;;;;;;0.00;0.00;;;;;;;;;;1723936;28;20204;-71
2021/12/10 02:32:43;;;;;;;0.00;0.00;;;;;;;;;;1724033;28;20271;-71
2021/12/10 02:33:36;;;;;;;0.00;0.00;;;;;;;;;;1725783;28;20598;-71
2021/12/10 02:34:28;;;;;;;0.00;0.00;;;;;;;;;;1723521;28;20589;-70
2021/12/10 02:35:21;;;;;;;0.00;0.00;;;;;;;;;;1726096;28;20239;-70
2021/12/10 02:36:12;;;;;;;0.10;0.10;;;;;;;;;;1722942;28;20223;-71
2021/12/10 02:37:06;;;;;;;0.10;0.10;;;;;;;;;;1725455;28;20760;-71
2021/12/10 02:37:58;;;;;;;0.00;0.00;;;;;;;;;;1720754;28;20642;-70
2021/12/10 02:38:51;;;;;;;0.00;0.00;;;;;;;;;;1725324;28;20682;-71
2021/12/10 02:39:44;;;;;;;0.00;0.00;;;;;;;;;;1721058;28;20228;-71
2021/12/10 02:40:37;;;;;;;0.00;0.00;;;;;;;;;;1724778;28;20271;-71
2021/12/10 02:41:30;;;;;;;0.00;0.00;;;;;;;;;;1720456;28;20691;-71
2021/12/10 02:42:22;;;;;;;0.00;0.00;;;;;;;;;;1724472;28;20267;-71
2021/12/10 02:43:14;;;;;;;0.00;0.00;;;;;;;;;;1725265;28;20546;-71
2021/12/10 02:44:06;;;;;;;0.00;0.00;;;;;;;;;;1722174;28;20204;-71
2021/12/10 02:44:58;;;;;;;0.00;0.00;;;;;;;;;;1724237;28;20269;-71
2021/12/10 02:45:53;;;;;;;0.00;0.00;;;;;;;;;;1723820;28;20228;-71
2021/12/10 02:46:44;;;;;;;0.00;0.00;;;;;;;;;;1725000;28;20212;-71
2021/12/10 02:47:37;;;;;;;0.00;0.00;;;;;;;;;;1724486;28;20504;-71
2021/12/10 02:48:28;;;;;;;0.00;0.00;;;;;;;;;;1725324;28;20228;-71
2021/12/10 02:49:20;;;;;;;0.00;0.00;;;;;;;;;;1724241;28;20267;-71
2021/12/10 02:50:12;;;;;;;0.03;0.03;;;;;;;;;;1726228;28;20209;-71
2021/12/10 02:51:07;;;;;;;0.10;0.10;;;;;;;;;;1723303;28;20744;-71
2021/12/10 02:51:58;;;;;;;0.00;0.00;;;;;;;;;;1725605;28;20211;-71
2021/12/10 02:52:52;;;;;;;0.00;0.00;;;;;;;;;;1723750;28;20207;-71
2021/12/10 02:53:45;;;;;;;0.00;0.00;;;;;;;;;;1725126;28;20216;-71
2021/12/10 02:54:38;;;;;;;0.00;0.00;;;;;;;;;;1723087;28;20196;-71
2021/12/10 02:55:30;;;;;;;0.00;0.00;;;;;;;;;;1725226;28;20200;-71
2021/12/10 02:56:23;;;;;;;0.00;0.00;;;;;;;;;;1720421;28;20201;-71
2021/12/10 02:57:17;;;;;;;0.00;0.00;;;;;;;;;;1725456;28;20562;-71
2021/12/10 02:58:10;;;;;;;0.00;0.00;;;;;;;;;;1723165;28;20217;-71
2021/12/10 02:59:04;;;;;;;0.00;0.00;;;;;;;;;;1723995;28;20216;-71
2021/12/10 02:59:56;;;;;;;0.08;0.08;;;;;;;;;;1724732;28;20200;-71
2021/12/10 03:00:49;;;;;;;0.00;0.00;;;;;;;;;;1724075;28;20235;-71
2021/12/10 03:01:43;;;;;;;0.00;0.00;;;;;;;;;;1722511;28;20200;-71
2021/12/10 03:02:35;;;;;;;0.00;0.00;;;;;;;;;;1723164;28;20304;-71
2021/12/10 03:03:27;;;;;;;0.00;0.00;;;;;;;;;;1723568;28;20692;-71
2021/12/10 03:04:19;;;;;;;0.00;0.00;;;;;;;;;;1723687;28;20251;-71
2021/12/10 03:05:12;;;;;;;0.00;0.00;;;;;;;;;;1725364;28;20270;-71
2021/12/10 03:06:09;;;;;;;0.10;0.10;;;;;;;;;;1723256;28;20293;-71
2021/12/10 03:07:02;;;;;;;0.00;0.00;;;;;;;;;;1725430;28;20530;-71
2021/12/10 03:07:55;;;;;;;0.10;0.10;;;;;;;;;;1723983;28;20222;-71
2021/12/10 03:08:48;;;;;;;0.00;0.00;;;;;;;;;;1719065;28;20623;-71
2021/12/10 03:09:40;;;;;;;0.00;0.00;;;;;;;;;;1724172;28;20200;-71
2021/12/10 03:10:34;;;;;;;0.08;0.08;;;;;;;;;;1724695;28;20625;-71
2021/12/10 03:11:26;;;;;;;0.00;0.00;;;;;;;;;;1724668;28;20204;-71
2021/12/10 03:12:20;;;;;;;0.00;0.00;;;;;;;;;;1725014;28;20203;-71
2021/12/10 03:13:11;;;;;;;0.10;0.10;;;;;;;;;;1725100;28;20265;-71
2021/12/10 03:14:08;;;;;;;0.00;0.00;;;;;;;;;;1724865;28;20203;-71
2021/12/10 03:14:59;;;;;;;0.00;0.00;;;;;;;;;;1722451;28;20503;-71
2021/12/10 03:15:52;;;;;;;0.00;0.00;;;;;;;;;;1723414;28;20311;-71
2021/12/10 03:16:44;;;;;;;0.00;0.00;;;;;;;;;;1721388;28;20583;-71
2021/12/10 03:17:37;;;;;;;0.00;0.00;;;;;;;;;;1724571;28;20215;-71
2021/12/10 03:18:28;;;;;;;0.10;0.10;;;;;;;;;;1725272;28;20203;-71
2021/12/10 03:19:20;;;;;;;0.00;0.00;;;;;;;;;;1721209;28;20205;-71
2021/12/10 03:20:13;;;;;;;0.10;0.10;;;;;;;;;;1726328;28;20216;-71
2021/12/10 03:21:09;;;;;;;0.00;0.00;;;;;;;;;;1723262;28;20410;-71
2021/12/10 03:22:00;;;;;;;0.10;0.10;;;;;;;;;;1725582;28;20201;-71
2021/12/10 03:22:52;;;;;;;0.00;0.00;;;;;;;;;;1723323;28;20593;-71
2021/12/10 03:23:46;;;;;;;0.00;0.00;;;;;;;;;;1725795;28;20204;-71
2021/12/10 03:24:38;;;;;;;0.00;0.00;;;;;;;;;;1724067;28;20933;-71
2021/12/10 03:25:30;;;;;;;0.00;0.00;;;;;;;;;;1725567;28;20204;-71
2021/12/10 03:26:23;;;;;;;0.00;0.00;;;;;;;;;;1723985;28;20220;-71
2021/12/10 03:27:15;;;;;;;0.00;0.00;;;;;;;;;;1725538;28;20219;-71
2021/12/10 03:28:07;;;;;;;0.00;0.00;;;;;;;;;;1724147;28;20278;-71
2021/12/10 03:28:58;;;;;;;0.10;0.10;;;;;;;;;;1724474;28;20215;-71
2021/12/10 03:29:51;;;;;;;0.00;0.00;;;;;;;;;;1723750;28;20300;-71
2021/12/10 03:30:43;;;;;;;0.00;0.00;;;;;;;;;;1724289;28;20556;-71
2021/12/10 03:31:35;;;;;;;0.00;0.00;;;;;;;;;;1725315;28;20204;-71
2021/12/10 03:32:29;;;;;;;0.00;0.00;;;;;;;;;;1724361;28;20259;-71
2021/12/10 03:33:21;;;;;;;0.00;0.00;;;;;;;;;;1722150;28;20388;-71
2021/12/10 03:34:12;;;;;;;0.00;0.00;;;;;;;;;;1723314;28;20212;-70
2021/12/10 03:35:09;;;;;;;0.00;0.00;;;;;;;;;;1722028;28;20231;-71
2021/12/10 03:36:01;;;;;;;0.00;0.00;;;;;;;;;;1723452;28;20578;-71
2021/12/10 03:36:53;;;;;;;0.00;0.00;;;;;;;;;;1725520;28;20200;-71
2021/12/10 03:37:45;;;;;;;0.10;0.10;;;;;;;;;;1721826;28;20215;-71
2021/12/10 03:38:38;;;;;;;0.00;0.00;;;;;;;;;;1724283;28;20200;-71
2021/12/10 03:39:31;;;;;;;0.00;0.00;;;;;;;;;;1723529;28;20192;-71
2021/12/10 03:40:23;;;;;;;0.00;0.00;;;;;;;;;;1725751;28;20527;-71
2021/12/10 03:41:14;;;;;;;0.00;0.00;;;;;;;;;;1723086;28;20231;-71
2021/12/10 03:42:07;;;;;;;0.00;0.00;;;;;;;;;;1725957;28;20985;-71
2021/12/10 03:43:00;;;;;;;0.00;0.00;;;;;;;;;;1724376;28;20208;-71
2021/12/10 03:43:54;;;;;;;0.00;0.00;;;;;;;;;;1723299;28;20262;-71
2021/12/10 03:44:45;;;;;;;0.00;0.00;;;;;;;;;;1722538;28;20204;-71
2021/12/10 03:45:41;;;;;;;0.00;0.00;;;;;;;;;;1724566;28;20290;-71
2021/12/10 03:46:33;;;;;;;0.00;0.00;;;;;;;;;;1725052;28;20201;-70
2021/12/10 03:47:25;;;;;;;0.00;0.00;;;;;;;;;;1724490;28;20204;-71
2021/12/10 03:48:18;;;;;;;0.00;0.00;;;;;;;;;;1721436;28;20204;-71
2021/12/10 03:49:10;;;;;;;0.00;0.00;;;;;;;;;;1724760;28;20192;-71
2021/12/10 03:50:01;;;;;;;0.00;0.00;;;;;;;;;;1722455;28;20215;-71
2021/12/10 03:50:57;;;;;;;0.00;0.00;;;;;;;;;;1722770;28;20235;-71
2021/12/10 03:51:49;;;;;;;0.00;0.00;;;;;;;;;;1723748;28;20197;-71
2021/12/10 03:52:41;;;;;;;0.00;0.00;;;;;;;;;;1722506;28;20677;-71
2021/12/10 03:53:32;;;;;;;0.00;0.00;;;;;;;;;;1723653;28;20204;-71
2021/12/10 03:54:25;;;;;;;0.00;0.00;;;;;;;;;;1722356;28;20512;-71
2021/12/10 03:55:18;;;;;;;0.00;0.00;;;;;;;;;;1726153;28;20282;-71
2021/12/10 03:56:13;;;;;;;0.00;0.00;;;;;;;;;;1719146;28;21294;-71
2021/12/10 03:57:05;;;;;;;0.00;0.00;;;;;;;;;;1718775;28;20224;-71
2021/12/10 03:57:57;;;;;;;0.00;0.00;;;;;;;;;;1716988;28;20602;-71
2021/12/10 03:58:50;;;;;;;0.00;0.00;;;;;;;;;;1725881;28;20632;-71
2021/12/10 03:59:42;;;;;;;0.00;0.00;;;;;;;;;;1723549;28;20324;-71
2021/12/10 04:00:35;;;;;;;0.10;0.10;;;;;;;;;;1725230;28;20207;-71
2021/12/10 04:01:30;;;;;;;0.00;0.00;;;;;;;;;;1725335;28;20653;-71
2021/12/10 04:02:21;;;;;;;0.00;0.00;;;;;;;;;;1724271;28;20719;-71
2021/12/10 04:03:18;;;;;;;0.00;0.00;;;;;;;;;;1725246;28;20215;-71
2021/12/10 04:04:13;;;;;;;0.08;0.08;;;;;;;;;;1723610;28;20193;-70
2021/12/10 04:05:08;;;;;;;0.00;0.00;;;;;;;;;;1722960;28;20265;-71
2021/12/10 04:05:59;;;;;;;0.00;0.00;;;;;;;;;;1721507;28;20236;-71
2021/12/10 04:06:52;;;;;;;0.00;0.00;;;;;;;;;;1723600;28;20231;-71
2021/12/10 04:07:44;;;;;;;0.00;0.00;;;;;;;;;;1724305;28;20250;-71
2021/12/10 04:08:36;;;;;;;0.00;0.00;;;;;;;;;;1724961;28;20231;-71
2021/12/10 04:09:27;;;;;;;0.10;0.10;;;;;;;;;;1723990;28;20612;-71
2021/12/10 04:10:21;;;;;;;0.10;0.10;;;;;;;;;;1726234;28;20212;-70
2021/12/10 04:11:15;;;;;;;0.10;0.10;;;;;;;;;;1722949;28;20246;-71
2021/12/10 04:12:08;;;;;;;0.10;0.10;;;;;;;;;;1725714;28;20537;-71
2021/12/10 04:13:00;;;;;;;0.00;0.00;;;;;;;;;;1723939;28;20220;-71
2021/12/10 04:13:52;;;;;;;0.00;0.00;;;;;;;;;;1725426;28;20204;-71
2021/12/10 04:14:45;;;;;;;0.00;0.00;;;;;;;;;;1724017;28;20212;-71
2021/12/10 04:15:39;;;;;;;0.00;0.00;;;;;;;;;;1725067;28;20224;-71
2021/12/10 04:16:30;;;;;;;0.00;0.00;;;;;;;;;;1723741;28;20585;-71
2021/12/10 04:17:23;;;;;;;0.00;0.00;;;;;;;;;;1724386;28;20500;-71
2021/12/10 04:18:15;;;;;;;0.00;0.00;;;;;;;;;;1725254;28;21795;-71
2021/12/10 04:19:08;;;;;;;0.00;0.00;;;;;;;;;;1722641;28;20197;-71
2021/12/10 04:19:59;;;;;;;0.00;0.00;;;;;;;;;;1723157;28;20645;-71
2021/12/10 04:20:52;;;;;;;0.00;0.00;;;;;;;;;;1724485;28;20227;-71
2021/12/10 04:21:43;;;;;;;0.00;0.00;;;;;;;;;;1724243;28;20212;-71
2021/12/10 04:22:35;;;;;;;0.00;0.00;;;;;;;;;;1724425;28;20620;-71
2021/12/10 04:23:26;;;;;;;0.00;0.00;;;;;;;;;;1723841;28;20208;-71
2021/12/10 04:24:20;;;;;;;0.10;0.10;;;;;;;;;;1725348;28;20205;-71
2021/12/10 04:25:11;;;;;;;0.00;0.00;;;;;;;;;;1725308;28;20206;-71
2021/12/10 04:26:05;;;;;;;0.00;0.00;;;;;;;;;;1722236;28;20236;-71
2021/12/10 04:26:57;;;;;;;0.00;0.00;;;;;;;;;;1725671;28;20208;-71
2021/12/10 04:27:50;;;;;;;0.00;0.00;;;;;;;;;;1725033;28;20242;-70
2021/12/10 04:28:41;;;;;;;0.00;0.00;;;;;;;;;;1726704;28;20227;-70
2021/12/10 04:29:33;;;;;;;0.00;0.00;;;;;;;;;;1720900;28;20222;-70
2021/12/10 04:30:25;;;;;;;0.00;0.00;;;;;;;;;;1719351;28;20236;-71
2021/12/10 04:31:17;;;;;;;0.00;0.00;;;;;;;;;;1718998;28;20213;-71
2021/12/10 04:32:09;;;;;;;0.00;0.00;;;;;;;;;;1727006;28;20231;-71
2021/12/10 04:33:01;;;;;;;0.00;0.00;;;;;;;;;;1725285;28;20203;-71
2021/12/10 04:33:53;;;;;;;0.30;0.30;;;;;;;;;;1726848;28;20684;-71
2021/12/10 04:34:45;;;;;;;0.00;0.00;;;;;;;;;;1725339;28;20215;-71
2021/12/10 04:35:36;;;;;;;0.10;0.10;;;;;;;;;;1725445;28;20204;-71
2021/12/10 04:36:29;;;;;;;0.10;0.10;;;;;;;;;;1721219;28;20200;-71
2021/12/10 04:37:20;;;;;;;0.10;0.10;;;;;;;;;;1725336;28;20782;-71
2021/12/10 04:38:13;;;;;;;0.00;0.00;;;;;;;;;;1722335;28;20201;-71
2021/12/10 04:39:04;;;;;;;0.00;0.00;;;;;;;;;;1725244;28;20232;-71
2021/12/10 04:39:56;;;;;;;0.00;0.00;;;;;;;;;;1722301;28;20542;-71
2021/12/10 04:40:49;;;;;;;0.00;0.00;;;;;;;;;;1724985;28;20603;-71
2021/12/10 04:41:42;;;;;;;0.05;0.05;;;;;;;;;;1725948;28;20258;-71
2021/12/10 04:42:33;;;;;;;0.00;0.00;;;;;;;;;;1724650;28;20258;-71
2021/12/10 04:43:26;;;;;;;0.00;0.00;;;;;;;;;;1726483;28;20204;-71
2021/12/10 04:44:17;;;;;;;0.00;0.00;;;;;;;;;;1720864;28;20204;-71
2021/12/10 04:45:09;;;;;;;0.00;0.00;;;;;;;;;;1724885;28;20236;-71
2021/12/10 04:46:01;;;;;;;0.00;0.00;;;;;;;;;;1724435;28;20391;-71
2021/12/10 04:46:53;;;;;;;0.00;0.00;;;;;;;;;;1726531;28;20209;-71
2021/12/10 04:47:44;;;;;;;0.00;0.00;;;;;;;;;;1725151;28;20216;-71
2021/12/10 04:48:46;;;;;;;0.00;0.00;;;;;;;;;;1725508;28;20541;-71
2021/12/10 04:49:37;;;;;;;0.00;0.00;;;;;;;;;;1725036;28;20208;-71
2021/12/10 04:50:30;;;;;;;0.10;0.10;;;;;;;;;;1726139;28;20203;-71
2021/12/10 04:51:22;;;;;;;0.10;0.10;;;;;;;;;;1725005;28;20296;-71
2021/12/10 04:52:14;;;;;;;0.10;0.10;;;;;;;;;;1726606;28;20254;-71
2021/12/10 04:53:07;;;;;;;0.00;0.00;;;;;;;;;;1725831;28;20621;-71
2021/12/10 04:54:00;;;;;;;0.00;0.00;;;;;;;;;;1724682;28;20219;-71
2021/12/10 04:54:51;;;;;;;0.00;0.00;;;;;;;;;;1723160;28;20215;-71
2021/12/10 04:55:44;;;;;;;0.00;0.00;;;;;;;;;;1724965;28;20231;-71
2021/12/10 04:56:35;;;;;;;0.00;0.00;;;;;;;;;;1725513;28;20231;-71
2021/12/10 04:57:29;;;;;;;0.00;0.00;;;;;;;;;;1725069;28;20288;-71
2021/12/10 04:58:20;;;;;;;0.10;0.10;;;;;;;;;;1724854;28;20207;-70
2021/12/10 04:59:15;;;;;;;0.00;0.00;;;;;;;;;;1725323;28;20200;-70
2021/12/10 05:00:08;;;;;;;0.00;0.00;;;;;;;;;;1725377;28;20239;-71
2021/12/10 05:01:02;;;;;;;0.00;0.00;;;;;;;;;;1724034;28;20225;-71
2021/12/10 05:01:54;;;;;;;0.00;0.00;;;;;;;;;;1726473;28;20645;-71
2021/12/10 05:02:47;;;;;;;0.20;0.20;;;;;;;;;;1724770;28;20287;-71
2021/12/10 05:03:38;;;;;;;0.00;0.00;;;;;;;;;;1726300;28;20212;-71
2021/12/10 05:04:30;;;;;;;0.00;0.00;;;;;;;;;;1724772;28;20207;-71
2021/12/10 05:05:22;;;;;;;0.10;0.10;;;;;;;;;;1726091;28;20208;-71
2021/12/10 05:06:14;;;;;;;0.00;0.00;;;;;;;;;;1723005;28;20625;-71
2021/12/10 05:07:06;;;;;;;0.00;0.00;;;;;;;;;;1725994;28;20554;-71
2021/12/10 05:07:58;;;;;;;0.10;0.10;;;;;;;;;;1724656;28;20212;-71
2021/12/10 05:08:51;;;;;;;0.00;0.00;;;;;;;;;;1726192;28;20215;-71
2021/12/10 05:09:43;;;;;;;0.03;0.03;;;;;;;;;;1724257;28;20204;-71
2021/12/10 05:10:34;;;;;;;0.00;0.00;;;;;;;;;;1725740;28;20207;-71
2021/12/10 05:11:27;;;;;;;0.00;0.00;;;;;;;;;;1724299;28;20204;-71
2021/12/10 05:12:18;;;;;;;0.00;0.00;;;;;;;;;;1724600;28;20211;-71
2021/12/10 05:13:12;;;;;;;0.00;0.00;;;;;;;;;;1724506;28;20232;-71
2021/12/10 05:14:03;;;;;;;0.00;0.00;;;;;;;;;;1725305;28;20660;-71
2021/12/10 05:15:00;;;;;;;0.00;0.00;;;;;;;;;;1722094;28;20658;-71
2021/12/10 05:15:57;;;;;;;0.00;0.00;;;;;;;;;;1724647;28;20233;-71
2021/12/10 05:16:51;;;;;;;0.00;0.00;;;;;;;;;;1725773;28;20625;-71
2021/12/10 05:17:42;;;;;;;0.00;0.00;;;;;;;;;;1724458;28;20708;-71
2021/12/10 05:18:37;;;;;;;0.00;0.00;;;;;;;;;;1725477;28;20200;-71
2021/12/10 05:19:29;;;;;;;0.03;0.03;;;;;;;;;;1718561;28;20295;-71
2021/12/10 05:20:22;;;;;;;0.10;0.10;;;;;;;;;;1725593;28;20215;-71
2021/12/10 05:21:15;;;;;;;0.00;0.00;;;;;;;;;;1724324;28;20239;-71
2021/12/10 05:22:08;;;;;;;0.00;0.00;;;;;;;;;;1719489;28;20212;-71
2021/12/10 05:23:00;;;;;;;0.00;0.00;;;;;;;;;;1722105;28;20279;-71
2021/12/10 05:23:51;;;;;;;0.00;0.00;;;;;;;;;;1725913;28;20538;-71
2021/12/10 05:24:43;;;;;;;0.00;0.00;;;;;;;;;;1724055;28;20273;-71